createdAt,value
2019-05-03T00:00:16.083Z,11.57
2019-05-03T00:03:01.758Z,11.58
2019-05-03T00:05:37.580Z,11.63
2019-05-03T00:08:08.388Z,11.57
2019-05-03T00:10:38.634Z,11.54
2019-05-03T00:13:08.296Z,11.52
2019-05-03T00:15:52.322Z,11.46
2019-05-03T00:18:22.116Z,11.48
2019-05-03T00:20:52.682Z,11.46
2019-05-03T00:23:22.814Z,11.39
2019-05-03T00:25:52.394Z,11.44
2019-05-03T00:28:21.785Z,11.40
2019-05-03T00:30:51.845Z,11.40
2019-05-03T00:33:22.477Z,11.36
2019-05-03T00:36:04.704Z,11.39
2019-05-03T00:38:33.729Z,11.42
2019-05-03T00:41:02.642Z,11.43
2019-05-03T00:43:31.855Z,11.44
2019-05-03T00:46:01.988Z,11.36
2019-05-03T00:48:32.665Z,11.40
2019-05-03T00:51:02.420Z,11.32
2019-05-03T00:53:31.831Z,11.31
2019-05-03T00:56:01.789Z,11.28
2019-05-03T00:58:31.786Z,11.31
2019-05-03T01:01:02.688Z,11.29
2019-05-03T01:03:32.584Z,11.37
2019-05-03T01:06:02.327Z,11.35
2019-05-03T01:08:32.667Z,11.33
2019-05-03T01:11:02.098Z,11.31
2019-05-03T01:13:32.095Z,11.37
2019-05-03T01:16:08.622Z,11.29
2019-05-03T01:18:37.597Z,11.28
2019-05-03T01:21:06.985Z,11.31
2019-05-03T01:23:35.861Z,11.29
2019-05-03T01:26:05.180Z,11.28
2019-05-03T01:28:34.142Z,11.26
2019-05-03T01:31:02.991Z,11.20
2019-05-03T01:33:32.306Z,11.10
2019-05-03T01:36:02.759Z,11.07
2019-05-03T01:38:32.120Z,11.06
2019-05-03T01:41:01.781Z,11.04
2019-05-03T01:43:31.703Z,11.04
2019-05-03T01:46:02.735Z,10.99
2019-05-03T01:49:02.712Z,10.92
2019-05-03T01:51:52.537Z,10.83
2019-05-03T01:54:22.859Z,10.80
2019-05-03T01:56:58.670Z,10.68
2019-05-03T01:59:22.739Z,10.59
2019-05-03T02:02:02.282Z,10.60
2019-05-03T02:04:41.742Z,10.51
2019-05-03T02:07:11.730Z,10.42
2019-05-03T02:09:41.716Z,10.31
2019-05-03T02:12:12.630Z,10.19
2019-05-03T02:14:42.252Z,10.09
2019-05-03T02:17:12.458Z,9.99
2019-05-03T02:19:42.156Z,9.92
2019-05-03T02:22:12.095Z,9.82
2019-05-03T02:24:42.220Z,9.73
2019-05-03T02:27:12.725Z,9.68
2019-05-03T02:29:41.893Z,9.61
2019-05-03T02:32:13.188Z,9.64
2019-05-03T02:34:43.848Z,9.51
2019-05-03T02:37:13.883Z,9.62
2019-05-03T02:39:43.058Z,9.63
2019-05-03T02:42:12.124Z,9.66
2019-05-03T02:44:41.233Z,9.62
2019-05-03T02:47:27.841Z,9.54
2019-05-03T02:50:00.713Z,9.48
2019-05-03T02:52:36.895Z,9.42
2019-05-03T02:55:07.742Z,9.33
2019-05-03T02:57:36.703Z,9.28
2019-05-03T03:00:08.319Z,9.16
2019-05-03T03:02:38.384Z,9.12
2019-05-03T03:05:07.481Z,9.20
2019-05-03T03:07:37.661Z,9.10
2019-05-03T03:10:08.197Z,9.08
2019-05-03T03:12:39.525Z,9.05
2019-05-03T03:15:08.393Z,8.97
2019-05-03T03:17:38.827Z,8.96
2019-05-03T03:20:08.781Z,8.89
2019-05-03T03:22:45.299Z,8.81
2019-05-03T03:25:35.970Z,8.68
2019-05-03T03:28:05.525Z,8.71
2019-05-03T03:31:28.292Z,8.63
2019-05-03T03:33:59.546Z,8.60
2019-05-03T03:36:44.867Z,8.51
2019-05-03T03:39:00.675Z,8.55
2019-05-03T03:41:31.014Z,8.39
2019-05-03T03:44:15.328Z,8.33
2019-05-03T03:46:45.464Z,7.32
2019-05-03T03:49:16.222Z,8.17
2019-05-03T03:51:46.440Z,8.16
2019-05-03T03:54:18.245Z,8.20
2019-05-03T03:57:03.005Z,8.16
2019-05-03T03:59:26.486Z,8.19
2019-05-03T04:01:56.998Z,8.19
2019-05-03T04:04:26.570Z,8.22
2019-05-03T04:07:00.514Z,8.28
2019-05-03T04:09:27.352Z,8.29
2019-05-03T04:11:57.144Z,8.44
2019-05-03T04:14:31.787Z,8.41
2019-05-03T04:17:26.053Z,8.53
2019-05-03T04:19:55.997Z,8.46
2019-05-03T04:22:25.632Z,8.48
2019-05-03T04:24:55.558Z,8.43
2019-05-03T04:27:28.025Z,8.44
2019-05-03T04:29:56.839Z,8.52
2019-05-03T04:32:28.984Z,8.60
2019-05-03T04:34:56.264Z,8.63
2019-05-03T04:37:26.683Z,8.75
2019-05-03T04:39:56.214Z,8.75
2019-05-03T04:42:25.684Z,8.68
2019-05-03T04:44:56.270Z,8.75
2019-05-03T04:47:26.431Z,8.80
2019-05-03T04:49:55.711Z,8.86
2019-05-03T04:52:25.983Z,8.91
2019-05-03T04:54:57.192Z,8.90
2019-05-03T04:57:39.912Z,8.85
2019-05-03T04:59:57.057Z,8.81
2019-05-03T05:02:26.608Z,8.89
2019-05-03T05:04:55.898Z,8.99
2019-05-03T05:07:26.171Z,9.03
2019-05-03T05:09:56.372Z,9.04
2019-05-03T05:12:25.586Z,9.10
2019-05-03T05:14:56.403Z,9.12
2019-05-03T05:17:35.505Z,9.24
2019-05-03T05:20:35.738Z,9.30
2019-05-03T05:23:04.900Z,9.40
2019-05-03T05:25:38.044Z,9.48
2019-05-03T05:28:15.110Z,9.52
2019-05-03T05:30:44.420Z,9.53
2019-05-03T05:33:25.042Z,9.53
2019-05-03T05:35:54.692Z,9.59
2019-05-03T05:38:25.592Z,9.65
2019-05-03T05:40:55.494Z,9.85
2019-05-03T05:43:25.542Z,10.00
2019-05-03T05:45:55.375Z,10.17
2019-05-03T05:48:30.935Z,10.32
2019-05-03T05:50:59.830Z,10.47
2019-05-03T05:53:28.760Z,10.66
2019-05-03T05:56:22.513Z,10.55
2019-05-03T05:59:02.028Z,10.52
2019-05-03T06:01:35.332Z,10.62
2019-05-03T06:04:05.386Z,10.62
2019-05-03T06:06:59.577Z,10.67
2019-05-03T06:09:44.834Z,10.76
2019-05-03T06:12:38.925Z,10.74
2019-05-03T06:15:15.055Z,10.82
2019-05-03T06:17:55.481Z,10.72
2019-05-03T06:20:37.248Z,10.78
2019-05-03T06:23:10.741Z,10.72
2019-05-03T06:25:42.283Z,10.94
2019-05-03T06:28:20.788Z,10.87
2019-05-03T06:31:06.130Z,10.97
2019-05-03T06:33:35.242Z,11.05
2019-05-03T06:36:04.978Z,11.23
2019-05-03T06:38:34.440Z,11.40
2019-05-03T06:41:04.703Z,11.33
2019-05-03T06:43:34.845Z,11.42
2019-05-03T06:46:05.366Z,11.33
2019-05-03T06:48:35.232Z,11.36
2019-05-03T06:51:08.807Z,11.41
2019-05-03T06:53:34.870Z,11.24
2019-05-03T06:56:04.567Z,11.19
2019-05-03T06:58:36.369Z,11.23
2019-05-03T07:01:35.651Z,11.13
2019-05-03T07:04:09.975Z,11.04
2019-05-03T07:06:46.177Z,11.22
2019-05-03T07:09:19.883Z,11.42
2019-05-03T07:11:48.855Z,11.39
2019-05-03T07:14:17.688Z,11.66
2019-05-03T07:16:46.613Z,11.59
2019-05-03T07:19:15.452Z,11.58
2019-05-03T07:21:44.728Z,11.88
2019-05-03T07:24:14.631Z,11.81
2019-05-03T07:26:44.803Z,12.03
2019-05-03T07:29:15.209Z,12.22
2019-05-03T07:31:44.734Z,12.56
2019-05-03T07:34:15.612Z,12.68
2019-05-03T07:36:44.834Z,12.74
2019-05-03T07:39:14.578Z,14.29
2019-05-03T07:41:44.638Z,15.13
2019-05-03T07:44:15.194Z,13.95
2019-05-03T07:46:45.202Z,13.58
2019-05-03T07:49:15.372Z,13.15
2019-05-03T07:51:44.866Z,13.01
2019-05-03T07:54:15.707Z,12.46
2019-05-03T07:56:50.298Z,12.26
2019-05-03T07:59:19.101Z,11.74
2019-05-03T08:01:50.783Z,11.85
2019-05-03T08:04:19.571Z,11.94
2019-05-03T08:06:48.649Z,12.09
2019-05-03T08:09:17.636Z,12.20
2019-05-03T08:11:46.773Z,12.36
2019-05-03T08:14:18.026Z,12.98
2019-05-03T08:16:46.568Z,13.45
2019-05-03T08:19:15.517Z,13.63
2019-05-03T08:21:45.718Z,13.56
2019-05-03T08:24:15.019Z,13.19
2019-05-03T08:26:45.294Z,13.15
2019-05-03T08:29:18.611Z,12.83
2019-05-03T08:32:12.921Z,12.97
2019-05-03T08:35:06.835Z,13.25
2019-05-03T08:37:48.252Z,13.52
2019-05-03T08:40:17.933Z,14.03
2019-05-03T08:42:46.809Z,14.04
2019-05-03T08:45:15.794Z,13.80
2019-05-03T08:47:45.146Z,13.76
2019-05-03T08:50:20.707Z,13.70
2019-05-03T08:52:45.330Z,13.83
2019-05-03T08:55:15.851Z,13.43
2019-05-03T08:57:45.052Z,13.44
2019-05-03T09:00:16.678Z,13.48
2019-05-03T09:02:45.880Z,13.82
2019-05-03T09:05:18.602Z,13.71
2019-05-03T09:07:46.597Z,13.65
2019-05-03T09:10:27.258Z,13.77
2019-05-03T09:13:30.762Z,13.86
2019-05-03T09:15:59.685Z,13.94
2019-05-03T09:18:28.608Z,13.98
2019-05-03T09:20:57.620Z,13.89
2019-05-03T09:23:26.706Z,13.13
2019-05-03T09:25:55.588Z,13.73
2019-05-03T09:28:26.506Z,13.54
2019-05-03T09:30:55.323Z,13.63
2019-05-03T09:33:24.957Z,13.35
2019-05-03T09:35:54.959Z,13.44
2019-05-03T09:38:25.647Z,13.78
2019-05-03T09:40:54.772Z,13.62
2019-05-03T09:43:25.071Z,13.58
2019-05-03T09:45:54.769Z,13.63
2019-05-03T09:48:25.530Z,14.03
2019-05-03T09:50:55.603Z,14.37
2019-05-03T09:53:26.720Z,14.55
2019-05-03T09:55:55.722Z,14.99
2019-05-03T09:58:26.366Z,15.16
2019-05-03T10:00:55.648Z,15.34
2019-05-03T10:03:24.848Z,14.92
2019-05-03T10:05:55.425Z,14.58
2019-05-03T10:08:25.452Z,14.27
2019-05-03T10:11:15.136Z,13.84
2019-05-03T10:13:47.383Z,13.76
2019-05-03T10:16:15.620Z,13.94
2019-05-03T10:18:46.009Z,13.88
2019-05-03T10:21:15.236Z,14.08
2019-05-03T10:23:45.168Z,14.05
2019-05-03T10:26:15.083Z,14.37
2019-05-03T10:28:44.302Z,14.52
2019-05-03T10:31:13.281Z,14.30
2019-05-03T10:33:46.871Z,14.37
2019-05-03T10:36:15.877Z,14.23
2019-05-03T10:38:46.022Z,14.46
2019-05-03T10:41:15.194Z,14.17
2019-05-03T10:43:45.096Z,14.04
2019-05-03T10:46:15.986Z,14.12
2019-05-03T10:48:45.426Z,14.56
2019-05-03T10:51:15.681Z,14.31
2019-05-03T10:53:47.679Z,14.72
2019-05-03T10:56:24.499Z,14.68
2019-05-03T10:58:58.901Z,14.74
2019-05-03T11:01:35.999Z,14.66
2019-05-03T11:04:05.422Z,15.02
2019-05-03T11:06:35.513Z,14.85
2019-05-03T11:09:05.816Z,14.50
2019-05-03T11:11:35.326Z,14.33
2019-05-03T11:14:05.410Z,14.34
2019-05-03T11:16:35.117Z,14.59
2019-05-03T11:19:05.507Z,14.53
2019-05-03T11:21:34.938Z,14.35
2019-05-03T11:24:03.959Z,14.41
2019-05-03T11:26:34.995Z,14.07
2019-05-03T11:29:05.196Z,14.41
2019-05-03T11:32:00.292Z,14.70
2019-05-03T11:34:35.495Z,14.39
2019-05-03T11:37:39.007Z,14.58
2019-05-03T11:40:09.129Z,14.37
2019-05-03T11:42:37.940Z,14.65
2019-05-03T11:45:06.940Z,14.70
2019-05-03T11:47:35.780Z,15.19
2019-05-03T11:50:05.247Z,14.99
2019-05-03T11:52:35.574Z,15.13
2019-05-03T11:55:11.379Z,15.18
2019-05-03T11:57:35.960Z,15.50
2019-05-03T12:00:06.184Z,15.66
2019-05-03T12:02:51.191Z,14.85
2019-05-03T12:05:25.314Z,15.27
2019-05-03T12:07:54.795Z,14.74
2019-05-03T12:10:36.548Z,15.54
2019-05-03T12:13:00.129Z,15.42
2019-05-03T12:15:29.067Z,15.64
2019-05-03T12:18:00.997Z,15.24
2019-05-03T12:20:31.758Z,14.43
2019-05-03T12:23:02.057Z,14.71
2019-05-03T12:25:32.159Z,14.35
2019-05-03T12:28:01.342Z,14.26
2019-05-03T12:30:30.323Z,14.68
2019-05-03T12:32:59.274Z,14.81
2019-05-03T12:35:28.104Z,15.03
2019-05-03T12:37:57.093Z,14.64
2019-05-03T12:40:26.076Z,14.66
2019-05-03T12:42:55.591Z,14.19
2019-05-03T12:45:24.827Z,14.84
2019-05-03T12:47:55.687Z,15.34
2019-05-03T12:50:25.184Z,15.29
2019-05-03T12:52:55.474Z,15.42
2019-05-03T12:55:24.918Z,15.20
2019-05-03T12:57:55.616Z,15.30
2019-05-03T13:00:48.675Z,15.34
2019-05-03T13:03:24.653Z,15.28
2019-05-03T13:05:55.619Z,15.20
2019-05-03T13:08:35.318Z,15.32
2019-05-03T13:11:05.303Z,15.82
2019-05-03T13:13:35.896Z,15.89
2019-05-03T13:16:05.444Z,15.98
2019-05-03T13:18:35.064Z,15.81
2019-05-03T13:21:05.834Z,15.66
2019-05-03T13:23:35.843Z,15.55
2019-05-03T13:26:05.812Z,15.82
2019-05-03T13:28:35.293Z,15.71
2019-05-03T13:31:05.821Z,15.94
2019-05-03T13:33:35.190Z,16.44
2019-05-03T13:36:04.769Z,16.34
2019-05-03T13:38:34.936Z,16.26
2019-05-03T13:41:06.236Z,15.83
2019-05-03T13:43:34.943Z,16.69
2019-05-03T13:46:05.167Z,16.74
2019-05-03T13:48:42.782Z,17.27
2019-05-03T13:51:05.426Z,17.24
2019-05-03T13:53:34.932Z,16.68
2019-05-03T13:56:04.789Z,16.67
2019-05-03T13:58:35.874Z,17.08
2019-05-03T14:01:05.516Z,17.00
2019-05-03T14:03:35.193Z,17.14
2019-05-03T14:06:08.388Z,16.81
2019-05-03T14:08:35.280Z,17.05
2019-05-03T14:11:05.026Z,16.59
2019-05-03T14:13:35.352Z,16.55
2019-05-03T14:16:05.522Z,15.68
2019-05-03T14:18:35.305Z,15.76
2019-05-03T14:21:11.397Z,16.43
2019-05-03T14:23:58.098Z,16.84
2019-05-03T14:26:27.025Z,17.10
2019-05-03T14:28:55.865Z,16.84
2019-05-03T14:31:25.307Z,17.35
2019-05-03T14:33:55.835Z,17.97
2019-05-03T14:36:25.193Z,18.27
2019-05-03T14:38:54.845Z,18.33
2019-05-03T14:41:25.460Z,17.55
2019-05-03T14:43:55.664Z,18.12
2019-05-03T14:46:32.612Z,18.28
2019-05-03T14:48:55.570Z,18.18
2019-05-03T14:51:25.338Z,18.18
2019-05-03T14:53:56.959Z,17.79
2019-05-03T14:56:45.571Z,17.64
2019-05-03T14:59:35.946Z,17.46
2019-05-03T15:02:40.188Z,17.47
2019-05-03T15:04:57.725Z,17.54
2019-05-03T15:07:26.645Z,16.69
2019-05-03T15:09:55.582Z,17.50
2019-05-03T15:12:25.213Z,17.89
2019-05-03T15:14:54.690Z,18.23
2019-05-03T15:17:24.655Z,18.59
2019-05-03T15:19:54.725Z,17.98
2019-05-03T15:22:25.357Z,18.62
2019-05-03T15:24:54.626Z,18.03
2019-05-03T15:27:24.848Z,17.86
2019-05-03T15:29:55.563Z,17.59
2019-05-03T15:32:24.729Z,17.67
2019-05-03T15:34:55.345Z,17.76
2019-05-03T15:37:25.462Z,17.62
2019-05-03T15:39:54.769Z,18.19
2019-05-03T15:42:24.546Z,18.37
2019-05-03T15:45:11.221Z,18.45
2019-05-03T15:47:45.488Z,17.88
2019-05-03T15:50:15.508Z,18.36
2019-05-03T15:52:44.579Z,18.35
2019-05-03T15:55:15.168Z,18.24
2019-05-03T15:57:44.686Z,17.74
2019-05-03T16:00:15.573Z,18.96
2019-05-03T16:02:44.575Z,18.60
2019-05-03T16:05:15.454Z,18.57
2019-05-03T16:07:44.641Z,18.67
2019-05-03T16:10:15.391Z,18.65
2019-05-03T16:12:44.937Z,18.65
2019-05-03T16:15:14.066Z,19.41
2019-05-03T16:17:44.849Z,19.51
2019-05-03T16:20:14.416Z,18.44
2019-05-03T16:22:46.391Z,17.79
2019-05-03T16:25:14.331Z,18.01
2019-05-03T16:27:50.760Z,17.32
2019-05-03T16:30:39.003Z,16.94
2019-05-03T16:33:08.058Z,17.15
2019-05-03T16:35:37.826Z,16.84
2019-05-03T16:38:07.102Z,17.21
2019-05-03T16:40:36.092Z,17.08
2019-05-03T16:43:05.123Z,17.07
2019-05-03T16:45:35.048Z,17.94
2019-05-03T16:48:04.527Z,17.88
2019-05-03T16:50:34.537Z,17.55
2019-05-03T16:53:05.454Z,17.55
2019-05-03T16:55:35.192Z,16.48
2019-05-03T16:58:04.312Z,16.21
2019-05-03T17:00:35.189Z,15.88
2019-05-03T17:03:05.669Z,15.79
2019-05-03T17:05:52.334Z,15.52
2019-05-03T17:08:28.251Z,15.19
2019-05-03T17:10:58.245Z,14.99
2019-05-03T17:13:27.141Z,14.81
2019-05-03T17:15:56.033Z,14.56
2019-05-03T17:18:24.957Z,14.51
2019-05-03T17:20:54.763Z,14.28
2019-05-03T17:23:24.572Z,13.97
2019-05-03T17:25:53.803Z,13.73
2019-05-03T17:28:24.722Z,13.80
2019-05-03T17:30:55.260Z,13.60
2019-05-03T17:33:25.325Z,13.61
2019-05-03T17:35:54.522Z,13.73
2019-05-03T17:38:23.409Z,13.72
2019-05-03T17:41:14.879Z,13.68
2019-05-03T17:43:50.538Z,13.86
2019-05-03T17:46:19.385Z,13.68
2019-05-03T17:48:48.747Z,13.62
2019-05-03T17:51:35.582Z,13.50
2019-05-03T17:54:29.794Z,13.45
2019-05-03T17:57:01.911Z,13.34
2019-05-03T17:59:35.578Z,13.35
2019-05-03T18:02:23.737Z,13.46
2019-05-03T18:05:15.226Z,13.47
2019-05-03T18:07:57.648Z,13.07
2019-05-03T18:10:27.447Z,12.94
2019-05-03T18:12:56.442Z,13.08
2019-05-03T18:15:25.423Z,12.70
2019-05-03T18:17:54.869Z,12.76
2019-05-03T18:20:25.547Z,12.73
2019-05-03T18:22:54.836Z,12.71
2019-05-03T18:25:24.864Z,12.54
2019-05-03T18:27:55.215Z,12.49
2019-05-03T18:30:24.413Z,12.42
2019-05-03T18:32:54.426Z,12.31
2019-05-03T18:35:25.561Z,12.28
2019-05-03T18:37:58.638Z,12.15
2019-05-03T18:40:28.422Z,12.21
2019-05-03T18:43:04.550Z,12.12
2019-05-03T18:46:00.605Z,12.07
2019-05-03T18:48:29.587Z,12.07
2019-05-03T18:50:58.479Z,11.97
2019-05-03T18:53:27.368Z,11.89
2019-05-03T18:55:56.405Z,11.81
2019-05-03T18:58:25.346Z,11.73
2019-05-03T19:00:54.895Z,11.68
2019-05-03T19:03:25.228Z,11.65
2019-05-03T19:05:57.705Z,11.67
2019-05-03T19:08:45.610Z,11.60
2019-05-03T19:11:24.526Z,11.64
2019-05-03T19:13:56.646Z,11.65
2019-05-03T19:16:39.466Z,11.61
2019-05-03T19:19:09.079Z,11.56
2019-05-03T19:21:38.033Z,11.50
2019-05-03T19:24:07.272Z,11.41
2019-05-03T19:26:36.224Z,11.47
2019-05-03T19:29:05.185Z,11.39
2019-05-03T19:31:35.602Z,11.35
2019-05-03T19:34:06.051Z,11.35
2019-05-03T19:36:37.205Z,11.54
2019-05-03T19:39:06.749Z,11.40
2019-05-03T19:41:35.790Z,11.33
2019-05-03T19:44:04.799Z,11.35
2019-05-03T19:46:35.093Z,11.38
2019-05-03T19:49:05.074Z,11.44
2019-05-03T19:51:34.352Z,11.27
2019-05-03T19:54:05.406Z,11.25
2019-05-03T19:56:34.567Z,11.16
2019-05-03T19:59:07.601Z,11.15
2019-05-03T20:01:46.066Z,11.13
2019-05-03T20:04:33.959Z,11.11
2019-05-03T20:07:17.026Z,10.80
2019-05-03T20:09:46.205Z,10.80
2019-05-03T20:12:16.107Z,10.79
2019-05-03T20:14:45.219Z,10.77
2019-05-03T20:17:14.794Z,10.62
2019-05-03T20:19:45.163Z,10.62
2019-05-03T20:22:15.146Z,10.62
2019-05-03T20:24:44.768Z,10.63
2019-05-03T20:27:15.829Z,10.68
2019-05-03T20:29:46.300Z,10.70
2019-05-03T20:32:15.975Z,10.62
2019-05-03T20:34:46.699Z,10.62
2019-05-03T20:37:15.767Z,10.45
2019-05-03T20:39:45.292Z,10.36
2019-05-03T20:42:35.581Z,10.36
2019-05-03T20:45:05.738Z,10.39
2019-05-03T20:47:42.031Z,10.27
2019-05-03T20:50:18.293Z,10.21
2019-05-03T20:52:47.323Z,10.31
2019-05-03T20:55:16.467Z,10.37
2019-05-03T20:57:45.390Z,10.23
2019-05-03T21:00:18.204Z,10.19
2019-05-03T21:02:53.543Z,10.18
2019-05-03T21:05:26.874Z,10.15
2019-05-03T21:07:48.882Z,10.17
2019-05-03T21:10:18.009Z,10.01
2019-05-03T21:12:47.043Z,9.90
2019-05-03T21:15:27.702Z,9.96
2019-05-03T21:18:15.230Z,9.88
2019-05-03T21:21:02.236Z,9.91
2019-05-03T21:23:34.485Z,9.93
2019-05-03T21:26:13.512Z,9.99
2019-05-03T21:28:40.186Z,9.93
2019-05-03T21:31:09.267Z,9.92
2019-05-03T21:33:38.301Z,9.91
2019-05-03T21:36:07.254Z,9.88
2019-05-03T21:38:36.115Z,9.91
2019-05-03T21:41:05.429Z,9.97
2019-05-03T21:43:34.983Z,9.79
2019-05-03T21:46:11.939Z,9.78
2019-05-03T21:48:57.994Z,9.81
2019-05-03T21:51:26.917Z,9.85
2019-05-03T21:53:55.691Z,9.77
2019-05-03T21:56:25.086Z,9.74
2019-05-03T21:58:55.289Z,9.77
2019-05-03T22:01:25.928Z,9.75
2019-05-03T22:03:54.984Z,9.63
2019-05-03T22:06:24.629Z,9.57
2019-05-03T22:08:55.422Z,9.43
2019-05-03T22:11:25.134Z,9.42
2019-05-03T22:13:57.170Z,9.44
2019-05-03T22:16:44.892Z,9.53
2019-05-03T22:19:16.311Z,9.57
2019-05-03T22:21:55.308Z,9.64
2019-05-03T22:24:55.700Z,9.67
2019-05-03T22:27:24.786Z,9.61
2019-05-03T22:29:54.588Z,9.62
2019-05-03T22:32:24.469Z,9.61
2019-05-03T22:34:54.337Z,9.49
2019-05-03T22:37:25.244Z,9.53
2019-05-03T22:39:54.965Z,9.55
2019-05-03T22:42:25.307Z,9.49
2019-05-03T22:44:55.356Z,9.48
2019-05-03T22:47:25.344Z,9.50
2019-05-03T22:49:54.851Z,9.62
2019-05-03T22:52:25.707Z,9.65
2019-05-03T22:54:55.491Z,9.70
2019-05-03T22:57:24.907Z,9.49
2019-05-03T22:59:53.829Z,9.45
2019-05-03T23:02:24.900Z,9.44
2019-05-03T23:04:55.421Z,9.41
2019-05-03T23:07:24.965Z,9.36
2019-05-03T23:09:54.180Z,9.29
2019-05-03T23:12:23.079Z,9.25
2019-05-03T23:14:52.120Z,9.21
2019-05-03T23:17:21.239Z,9.20
2019-05-03T23:19:56.536Z,9.12
2019-05-03T23:22:28.344Z,9.19
2019-05-03T23:24:57.362Z,9.14
2019-05-03T23:27:26.617Z,9.16
2019-05-03T23:29:56.002Z,9.17
2019-05-03T23:32:24.933Z,9.24
2019-05-03T23:34:54.407Z,9.19
2019-05-03T23:37:23.550Z,9.16
2019-05-03T23:39:52.496Z,9.15
2019-05-03T23:42:21.275Z,9.24
2019-05-03T23:44:50.263Z,9.21
2019-05-03T23:47:34.491Z,9.15
2019-05-03T23:50:04.809Z,9.05
2019-05-03T23:52:38.314Z,9.03
2019-05-03T23:55:19.144Z,8.97
2019-05-03T23:57:48.216Z,9.09
